Time;durP1;ratioP1;P1;durP2;ratioP2;P2;SDS_P1;SDS_P2;PMS_P1;PMS_P2;Temp;Humidity;BMP_temperature;BMP_pressure;BME280_temperature;BME280_humidity;BME280_pressure;Samples;Min_cycle;Max_cycle;Signal;HPM_P1;HPM_P2
2021/07/31 00:00:29;;;;;;;2.27;1.50;;;25.00;63.00;;;;;;5009494;28;20389;-70
2021/07/31 00:02:55;;;;;;;2.50;1.50;;;25.00;63.00;;;;;;5012516;28;20420;-71
2021/07/31 00:05:20;;;;;;;2.03;1.50;;;25.00;63.10;;;;;;5013985;28;20392;-71
2021/07/31 00:07:46;;;;;;;2.00;1.50;;;25.00;63.10;;;;;;5008562;28;20398;-68
2021/07/31 00:10:12;;;;;;;2.83;1.77;;;25.00;63.10;;;;;;5010908;28;20387;-72
2021/07/31 00:12:38;;;;;;;2.22;1.58;;;25.00;63.10;;;;;;5014242;28;20402;-67
2021/07/31 00:15:05;;;;;;;2.38;1.65;;;25.00;63.10;;;;;;5009481;28;20419;-68
2021/07/31 00:17:31;;;;;;;2.45;1.52;;;25.00;63.10;;;;;;5014551;28;20403;-69
2021/07/31 00:19:57;;;;;;;2.00;1.50;;;25.00;63.10;;;;;;5018106;28;20406;-71
2021/07/31 00:22:23;;;;;;;2.33;1.53;;;25.00;63.10;;;;;;5006210;28;20396;-71
2021/07/31 00:24:48;;;;;;;2.28;1.40;;;25.00;63.10;;;;;;5009878;28;20403;-71
2021/07/31 00:27:14;;;;;;;2.10;1.70;;;25.00;63.10;;;;;;5010254;28;20411;-71
2021/07/31 00:29:39;;;;;;;2.00;1.70;;;24.90;63.00;;;;;;5012329;28;20458;-67
2021/07/31 00:32:06;;;;;;;2.13;1.50;;;24.90;63.10;;;;;;5010626;28;20385;-68
2021/07/31 00:34:32;;;;;;;1.88;1.50;;;25.00;63.10;;;;;;5003724;28;20404;-68
2021/07/31 00:36:58;;;;;;;1.87;1.40;;;25.00;63.10;;;;;;5007379;28;20393;-68
2021/07/31 00:39:23;;;;;;;1.92;1.40;;;25.00;63.10;;;;;;5012773;28;20392;-70
2021/07/31 00:41:49;;;;;;;1.98;1.40;;;25.00;63.20;;;;;;5008898;28;20412;-69
2021/07/31 00:44:15;;;;;;;1.97;1.60;;;25.00;63.10;;;;;;5010460;28;20488;-67
2021/07/31 00:46:40;;;;;;;1.98;1.40;;;24.90;63.10;;;;;;5009901;28;20931;-67
2021/07/31 00:49:06;;;;;;;2.17;1.70;;;24.90;63.10;;;;;;5011949;28;20459;-70
2021/07/31 00:51:32;;;;;;;1.52;1.30;;;24.90;63.10;;;;;;5010746;28;20401;-70
2021/07/31 00:53:58;;;;;;;1.97;1.40;;;24.90;63.10;;;;;;5010384;28;20879;-69
2021/07/31 00:56:24;;;;;;;1.95;1.50;;;24.90;63.10;;;;;;5012664;28;20493;-67
2021/07/31 00:58:49;;;;;;;1.98;1.45;;;24.90;63.10;;;;;;5014240;28;20391;-69
2021/07/31 01:01:15;;;;;;;1.87;1.37;;;24.90;63.10;;;;;;5013891;28;20476;-69
2021/07/31 01:03:41;;;;;;;2.40;1.43;;;24.90;63.10;;;;;;5007003;28;20420;-65
2021/07/31 01:06:07;;;;;;;2.15;1.60;;;24.90;63.10;;;;;;5014622;28;20694;-67
2021/07/31 01:08:33;;;;;;;1.70;1.30;;;24.90;63.10;;;;;;5009840;28;20401;-68
2021/07/31 01:10:59;;;;;;;1.70;1.30;;;24.90;63.10;;;;;;5003948;28;20389;-67
2021/07/31 01:13:25;;;;;;;2.17;1.58;;;24.80;63.10;;;;;;5011290;28;20400;-69
2021/07/31 01:16:08;;;;;;;1.80;1.50;;;24.90;63.10;;;;;;5008037;28;20389;-70
2021/07/31 01:18:34;;;;;;;1.98;1.40;;;24.90;63.10;;;;;;5009880;28;20417;-70
2021/07/31 01:21:00;;;;;;;2.00;1.40;;;24.80;63.10;;;;;;5007718;28;20897;-71
2021/07/31 01:23:26;;;;;;;1.70;1.20;;;24.80;63.10;;;;;;5010718;28;20927;-69
2021/07/31 01:25:52;;;;;;;1.85;1.40;;;24.80;63.10;;;;;;5014149;28;20383;-67
2021/07/31 01:28:17;;;;;;;1.73;1.40;;;24.90;63.20;;;;;;5013270;28;20937;-67
2021/07/31 01:30:43;;;;;;;2.00;1.50;;;24.90;63.20;;;;;;5015610;28;20390;-67
2021/07/31 01:33:09;;;;;;;1.65;1.20;;;24.80;63.10;;;;;;5029102;28;20901;-69
2021/07/31 01:35:35;;;;;;;2.17;1.40;;;24.80;63.10;;;;;;5021223;28;20571;-69
2021/07/31 01:38:01;;;;;;;2.00;1.60;;;24.80;63.10;;;;;;5016189;28;20391;-66
2021/07/31 01:40:28;;;;;;;1.90;1.50;;;24.80;63.20;;;;;;5013854;28;20404;-67
2021/07/31 01:42:56;;;;;;;1.58;1.38;;;24.80;63.10;;;;;;5013281;28;20801;-67
2021/07/31 01:45:25;;;;;;;1.52;1.30;;;24.80;63.10;;;;;;5015382;28;21023;-72
2021/07/31 01:47:51;;;;;;;1.60;1.25;;;24.80;63.10;;;;;;5013934;28;20404;-69
2021/07/31 01:50:17;;;;;;;1.50;1.30;;;24.80;63.10;;;;;;5021755;28;20407;-67
2021/07/31 01:52:44;;;;;;;1.60;1.30;;;24.80;63.10;;;;;;5014148;28;20638;-67
2021/07/31 01:55:10;;;;;;;1.60;1.23;;;24.80;63.10;;;;;;5029056;28;20444;-67
2021/07/31 01:57:36;;;;;;;1.90;1.27;;;24.80;63.20;;;;;;5014405;28;20405;-67
2021/07/31 02:00:03;;;;;;;1.63;1.30;;;24.80;63.10;;;;;;5012902;28;20404;-70
2021/07/31 02:02:29;;;;;;;1.65;1.35;;;24.80;63.10;;;;;;5018651;28;20440;-69
2021/07/31 02:04:55;;;;;;;1.60;1.13;;;24.80;63.10;;;;;;5018556;28;20401;-68
2021/07/31 02:07:20;;;;;;;1.60;1.30;;;24.80;63.80;;;;;;5012091;28;20550;-71
2021/07/31 02:09:46;;;;;;;1.57;1.20;;;24.80;63.20;;;;;;5012561;28;20384;-71
2021/07/31 02:12:12;;;;;;;3.53;1.50;;;24.80;63.10;;;;;;5016407;28;20464;-70
2021/07/31 02:14:37;;;;;;;1.70;1.30;;;24.80;63.10;;;;;;5011043;28;20415;-71
2021/07/31 02:17:03;;;;;;;1.95;1.33;;;24.80;63.20;;;;;;5019504;28;20771;-69
2021/07/31 02:19:30;;;;;;;1.80;1.10;;;24.70;63.10;;;;;;5015511;28;20399;-67
2021/07/31 02:21:56;;;;;;;1.90;1.40;;;24.80;63.20;;;;;;5017091;28;20395;-69
2021/07/31 02:24:22;;;;;;;1.50;1.30;;;24.80;63.20;;;;;;5016199;28;20426;-71
2021/07/31 02:26:47;;;;;;;1.97;1.50;;;24.80;63.20;;;;;;5017488;28;20824;-71
2021/07/31 02:29:13;;;;;;;1.73;1.30;;;24.80;63.20;;;;;;5016779;28;20396;-70
2021/07/31 02:31:39;;;;;;;1.67;1.30;;;24.70;63.20;;;;;;5013476;28;20404;-69
2021/07/31 02:34:05;;;;;;;1.48;1.10;;;24.70;63.20;;;;;;5011966;28;20451;-68
2021/07/31 02:36:30;;;;;;;1.90;1.30;;;24.70;63.20;;;;;;5016398;28;20399;-67
2021/07/31 02:38:56;;;;;;;1.77;1.38;;;24.70;63.20;;;;;;5009380;28;20498;-69
2021/07/31 02:41:22;;;;;;;1.57;1.30;;;24.70;63.20;;;;;;5010626;28;20833;-71
2021/07/31 02:43:47;;;;;;;1.70;1.20;;;24.70;63.20;;;;;;5006957;28;20416;-70
2021/07/31 02:46:13;;;;;;;1.90;1.40;;;24.70;63.20;;;;;;5015672;28;20389;-68
2021/07/31 02:48:39;;;;;;;1.70;1.40;;;24.70;63.80;;;;;;5012520;28;20397;-70
2021/07/31 02:51:06;;;;;;;1.92;1.45;;;24.70;63.20;;;;;;5010860;28;20762;-68
2021/07/31 02:53:32;;;;;;;1.70;1.20;;;24.70;63.20;;;;;;5011212;28;20432;-66
2021/07/31 02:55:59;;;;;;;2.10;1.30;;;24.70;63.20;;;;;;5008795;28;20482;-67
2021/07/31 02:58:25;;;;;;;1.65;1.13;;;24.70;63.20;;;;;;5015102;28;20410;-70
2021/07/31 03:00:51;;;;;;;1.70;1.20;;;24.70;63.20;;;;;;5015363;28;20691;-67
2021/07/31 03:03:16;;;;;;;1.48;1.10;;;24.70;63.20;;;;;;5007939;28;20420;-70
2021/07/31 03:05:42;;;;;;;1.40;1.10;;;24.70;63.20;;;;;;5013888;28;20436;-69
2021/07/31 03:08:08;;;;;;;1.92;1.30;;;24.70;63.20;;;;;;5012062;28;21321;-70
2021/07/31 03:10:33;;;;;;;1.60;1.30;;;24.70;63.20;;;;;;5009155;28;20393;-71
2021/07/31 03:12:59;;;;;;;2.17;1.30;;;24.70;63.20;;;;;;5017248;28;20485;-68
2021/07/31 03:15:25;;;;;;;2.23;1.40;;;24.70;63.20;;;;;;5016071;28;20405;-67
2021/07/31 03:17:50;;;;;;;1.87;1.40;;;24.70;63.20;;;;;;5009891;28;20415;-69
2021/07/31 03:20:16;;;;;;;1.63;1.33;;;24.70;63.20;;;;;;5012002;28;20384;-70
2021/07/31 03:22:42;;;;;;;1.75;1.38;;;24.70;63.20;;;;;;5010442;28;20415;-71
2021/07/31 03:25:08;;;;;;;2.07;1.40;;;24.70;63.20;;;;;;5011003;28;20459;-69
2021/07/31 03:27:34;;;;;;;1.80;1.40;;;24.70;63.30;;;;;;5009302;28;20469;-70
2021/07/31 03:30:01;;;;;;;1.65;1.20;;;24.70;63.20;;;;;;5015131;28;20443;-68
2021/07/31 03:32:27;;;;;;;1.65;1.30;;;24.60;63.20;;;;;;5012766;28;20388;-70
2021/07/31 03:34:52;;;;;;;1.63;1.10;;;24.70;63.30;;;;;;5006858;28;20458;-72
2021/07/31 03:37:18;;;;;;;1.67;1.27;;;24.70;63.20;;;;;;5012681;28;20387;-71
2021/07/31 03:39:44;;;;;;;1.80;1.08;;;24.60;63.20;;;;;;5018902;28;20401;-70
2021/07/31 03:42:09;;;;;;;1.73;1.20;;;24.60;63.20;;;;;;5009904;28;20420;-69
2021/07/31 03:44:35;;;;;;;1.83;1.20;;;24.60;63.20;;;;;;5012616;28;20511;-69
2021/07/31 03:47:00;;;;;;;1.45;1.20;;;24.60;63.20;;;;;;5010913;28;20760;-68
2021/07/31 03:49:26;;;;;;;1.47;1.07;;;24.60;63.20;;;;;;5010375;28;20908;-67
2021/07/31 03:51:55;;;;;;;1.60;1.23;;;24.60;63.20;;;;;;5004242;28;20397;-71
2021/07/31 03:54:21;;;;;;;2.42;1.20;;;24.60;63.20;;;;;;5006462;28;20892;-70
2021/07/31 03:56:47;;;;;;;1.50;1.10;;;24.60;63.20;;;;;;5011454;28;20411;-68
2021/07/31 03:59:12;;;;;;;1.63;1.20;;;24.60;63.20;;;;;;5006378;28;20400;-71
2021/07/31 04:01:38;;;;;;;1.80;1.30;;;24.60;63.20;;;;;;5015530;28;20800;-71
2021/07/31 04:04:03;;;;;;;1.83;1.30;;;24.60;63.20;;;;;;5014502;28;20476;-69
2021/07/31 04:06:29;;;;;;;1.70;1.30;;;24.60;63.30;;;;;;5007365;28;20397;-67
2021/07/31 04:08:55;;;;;;;2.00;1.20;;;24.60;63.30;;;;;;5013631;28;20463;-68
2021/07/31 04:11:21;;;;;;;1.70;1.27;;;24.60;63.20;;;;;;5010117;28;20427;-68
2021/07/31 04:13:46;;;;;;;1.90;1.25;;;24.60;63.30;;;;;;5011456;28;20405;-70
2021/07/31 04:16:12;;;;;;;1.90;1.30;;;24.60;63.30;;;;;;5010307;28;21039;-69
2021/07/31 04:18:38;;;;;;;1.70;1.10;;;24.60;63.30;;;;;;5011840;28;20421;-68
2021/07/31 04:21:08;;;;;;;1.73;1.10;;;24.60;63.30;;;;;;5008772;28;20407;-67
2021/07/31 04:23:35;;;;;;;1.60;1.20;;;24.60;63.30;;;;;;5015175;28;20525;-71
2021/07/31 04:26:12;;;;;;;1.80;1.20;;;24.60;63.30;;;;;;5011391;28;20389;-70
2021/07/31 04:28:38;;;;;;;1.77;1.30;;;24.60;63.30;;;;;;5011495;28;20403;-69
2021/07/31 04:31:15;;;;;;;1.55;1.00;;;24.60;63.30;;;;;;5005439;28;20500;-69
2021/07/31 04:33:42;;;;;;;1.40;1.00;;;24.60;63.30;;;;;;5006533;28;20909;-71
2021/07/31 04:36:08;;;;;;;1.73;1.20;;;24.60;63.30;;;;;;5008044;28;20392;-69
2021/07/31 04:38:35;;;;;;;1.60;1.20;;;24.60;63.30;;;;;;5003871;28;20805;-71
2021/07/31 04:41:01;;;;;;;1.65;1.27;;;24.60;63.30;;;;;;5016057;28;20770;-68
2021/07/31 04:43:27;;;;;;;1.48;1.20;;;24.60;63.30;;;;;;5015891;28;20834;-70
2021/07/31 04:45:53;;;;;;;1.60;1.20;;;24.50;63.30;;;;;;5005906;28;20420;-69
2021/07/31 04:48:18;;;;;;;1.63;1.20;;;24.50;63.20;;;;;;5008226;28;20434;-71
2021/07/31 04:50:44;;;;;;;1.60;1.10;;;24.50;63.20;;;;;;5011509;28;20397;-67
2021/07/31 04:53:10;;;;;;;1.88;1.23;;;24.60;63.30;;;;;;5007248;28;20392;-71
2021/07/31 04:55:35;;;;;;;1.70;1.50;;;24.60;63.30;;;;;;5006217;28;20461;-68
2021/07/31 04:58:01;;;;;;;1.85;1.33;;;24.60;63.30;;;;;;5009889;28;21053;-67
2021/07/31 05:00:27;;;;;;;1.85;1.30;;;24.60;63.30;;;;;;5014971;28;20412;-69
2021/07/31 05:02:52;;;;;;;1.80;1.30;;;24.60;63.30;;;;;;5003869;28;20420;-67
2021/07/31 05:05:18;;;;;;;1.70;1.17;;;24.50;63.20;;;;;;5009817;28;20441;-70
2021/07/31 05:07:43;;;;;;;1.83;1.30;;;24.60;63.30;;;;;;5010560;28;21499;-68
2021/07/31 05:10:09;;;;;;;1.70;1.30;;;24.50;63.20;;;;;;5008224;28;20828;-70
2021/07/31 05:12:35;;;;;;;1.73;1.23;;;24.60;63.30;;;;;;5008843;28;20734;-70
2021/07/31 05:15:01;;;;;;;1.60;1.25;;;24.50;63.20;;;;;;5011907;28;20724;-70
2021/07/31 05:17:26;;;;;;;1.52;1.20;;;24.60;63.90;;;;;;5010566;28;20415;-67
2021/07/31 05:19:52;;;;;;;1.83;1.47;;;24.60;63.30;;;;;;5007585;28;20499;-70
2021/07/31 05:22:19;;;;;;;2.42;1.30;;;24.50;63.10;;;;;;5009581;28;20434;-66
2021/07/31 05:24:45;;;;;;;2.83;1.50;;;24.50;63.80;;;;;;5009031;28;20781;-72
2021/07/31 05:27:10;;;;;;;1.85;1.30;;;24.50;63.20;;;;;;5013371;28;20896;-71
2021/07/31 05:29:36;;;;;;;3.15;1.58;;;24.50;64.20;;;;;;5013380;28;20392;-71
2021/07/31 05:32:05;;;;;;;2.28;1.65;;;24.60;64.70;;;;;;5012360;28;20471;-67
2021/07/31 05:34:31;;;;;;;2.42;1.50;;;24.60;64.70;;;;;;5005653;28;20395;-66
2021/07/31 05:36:56;;;;;;;2.67;1.45;;;24.60;62.70;;;;;;5009051;28;20397;-69
2021/07/31 05:39:22;;;;;;;2.80;1.30;;;24.50;60.50;;;;;;5009940;28;20399;-67
2021/07/31 05:41:47;;;;;;;5.00;1.58;;;24.50;61.40;;;;;;5010486;28;20389;-66
2021/07/31 05:44:13;;;;;;;2.20;1.30;;;24.60;61.80;;;;;;5008651;28;20424;-67
2021/07/31 05:46:39;;;;;;;2.50;1.53;;;24.50;62.20;;;;;;5009042;28;20389;-66
2021/07/31 05:49:04;;;;;;;2.80;1.63;;;24.50;62.10;;;;;;5006202;28;20471;-68
2021/07/31 05:51:30;;;;;;;2.37;1.60;;;24.50;62.20;;;;;;5014633;28;20442;-66
2021/07/31 05:53:55;;;;;;;2.38;1.52;;;24.50;62.40;;;;;;5012003;28;20867;-66
2021/07/31 05:56:21;;;;;;;2.13;1.30;;;24.50;62.90;;;;;;5010240;28;20391;-66
2021/07/31 05:58:47;;;;;;;2.47;1.43;;;24.50;62.70;;;;;;5010797;28;20451;-66
2021/07/31 06:01:12;;;;;;;3.05;1.33;;;24.50;63.00;;;;;;5009151;28;20392;-66
2021/07/31 06:03:38;;;;;;;2.60;1.40;;;24.60;63.20;;;;;;5005576;28;20439;-67
2021/07/31 06:06:04;;;;;;;1.95;1.50;;;24.60;63.30;;;;;;5014017;28;20383;-68
2021/07/31 06:08:30;;;;;;;3.17;1.50;;;24.60;63.30;;;;;;5010643;28;20527;-67
2021/07/31 06:11:00;;;;;;;2.63;1.43;;;24.60;63.30;;;;;;5014111;28;20494;-66
2021/07/31 06:13:26;;;;;;;4.97;1.60;;;24.60;63.30;;;;;;5008703;28;20395;-67
2021/07/31 06:15:52;;;;;;;2.15;1.40;;;24.60;63.50;;;;;;5010948;28;20402;-66
2021/07/31 06:18:17;;;;;;;4.73;1.60;;;24.60;63.30;;;;;;5018039;28;20415;-69
2021/07/31 06:20:43;;;;;;;3.20;1.60;;;24.60;63.40;;;;;;5014666;28;20388;-67
2021/07/31 06:23:08;;;;;;;3.10;1.40;;;24.60;63.50;;;;;;5006276;28;20435;-70
2021/07/31 06:25:34;;;;;;;3.70;1.67;;;24.60;63.70;;;;;;5016393;28;20600;-69
2021/07/31 06:28:00;;;;;;;3.15;1.60;;;24.60;63.90;;;;;;5011930;28;20753;-70
2021/07/31 06:30:25;;;;;;;2.35;1.50;;;24.60;64.30;;;;;;5016410;28;20399;-68
2021/07/31 06:32:52;;;;;;;3.17;1.60;;;24.60;64.40;;;;;;5013009;28;20519;-68
2021/07/31 06:35:17;;;;;;;3.67;1.50;;;24.60;64.40;;;;;;5010504;28;20399;-69
2021/07/31 06:37:43;;;;;;;2.22;1.40;;;24.60;64.40;;;;;;5008115;28;20393;-69
2021/07/31 06:40:09;;;;;;;6.23;1.57;;;24.60;64.40;;;;;;5011090;28;20794;-68
2021/07/31 06:42:35;;;;;;;2.20;1.30;;;24.70;64.70;;;;;;5011648;28;20485;-67
2021/07/31 06:45:01;;;;;;;2.83;1.70;;;24.70;64.50;;;;;;5015952;28;20609;-70
2021/07/31 06:47:27;;;;;;;3.30;1.40;;;24.70;64.60;;;;;;5010465;28;20391;-70
2021/07/31 06:49:52;;;;;;;2.70;1.60;;;24.70;64.60;;;;;;5011162;28;20395;-70
2021/07/31 06:52:18;;;;;;;3.13;1.50;;;24.70;64.50;;;;;;5007661;28;20502;-67
2021/07/31 06:54:44;;;;;;;2.33;1.30;;;24.70;64.50;;;;;;5010364;28;20492;-66
2021/07/31 06:57:10;;;;;;;3.80;1.40;;;24.70;64.20;;;;;;5014838;28;20402;-67
2021/07/31 06:59:37;;;;;;;2.80;1.40;;;24.70;64.50;;;;;;5012493;28;20891;-68
2021/07/31 07:02:03;;;;;;;4.30;1.50;;;24.60;64.40;;;;;;5012296;28;20395;-71
2021/07/31 07:04:28;;;;;;;2.70;1.47;;;24.70;65.00;;;;;;5012192;28;20478;-67
2021/07/31 07:06:54;;;;;;;4.22;1.55;;;24.70;64.50;;;;;;5010679;28;20414;-68
2021/07/31 07:09:19;;;;;;;3.63;1.50;;;24.70;64.40;;;;;;5011159;28;20401;-69
2021/07/31 07:11:45;;;;;;;3.75;1.63;;;24.70;64.40;;;;;;5009831;28;20412;-70
2021/07/31 07:14:11;;;;;;;2.73;1.50;;;24.60;64.50;;;;;;5008546;28;20481;-68
2021/07/31 07:16:36;;;;;;;2.88;1.50;;;24.60;64.90;;;;;;5009505;28;20393;-68
2021/07/31 07:19:02;;;;;;;2.75;1.45;;;24.70;64.70;;;;;;5015295;28;20422;-69
2021/07/31 07:21:28;;;;;;;4.80;1.67;;;24.60;64.70;;;;;;5011317;28;20443;-70
2021/07/31 07:23:54;;;;;;;6.68;1.52;;;24.70;64.40;;;;;;5012795;28;20420;-70
2021/07/31 07:26:20;;;;;;;4.38;1.60;;;24.60;65.00;;;;;;5010836;28;20393;-70
2021/07/31 07:28:45;;;;;;;3.30;1.57;;;24.60;64.50;;;;;;5009495;28;21621;-68
2021/07/31 07:31:13;;;;;;;2.47;1.40;;;24.60;64.40;;;;;;5015891;28;20794;-69
2021/07/31 07:33:40;;;;;;;3.28;1.40;;;24.60;64.40;;;;;;5017131;28;20389;-70
2021/07/31 07:36:17;;;;;;;3.15;1.50;;;24.60;64.40;;;;;;5009627;28;20477;-67
2021/07/31 07:38:44;;;;;;;2.75;1.50;;;24.60;64.20;;;;;;5006292;28;20424;-68
2021/07/31 07:41:11;;;;;;;2.20;1.50;;;24.60;64.20;;;;;;5013885;28;20393;-69
2021/07/31 07:43:37;;;;;;;2.17;1.30;;;24.60;64.30;;;;;;5014607;28;20625;-70
2021/07/31 07:46:03;;;;;;;2.85;1.50;;;24.60;64.20;;;;;;5017385;28;20399;-69
2021/07/31 07:48:29;;;;;;;4.10;1.52;;;24.60;64.10;;;;;;5011200;28;21203;-71
2021/07/31 07:50:54;;;;;;;2.47;1.50;;;24.60;64.10;;;;;;5008046;28;20388;-70
2021/07/31 07:53:20;;;;;;;2.25;1.55;;;24.60;64.10;;;;;;5014699;28;20396;-69
2021/07/31 07:55:46;;;;;;;2.40;1.40;;;24.60;64.00;;;;;;5014259;28;20485;-70
2021/07/31 07:58:12;;;;;;;2.45;1.30;;;24.60;63.90;;;;;;5012421;28;20908;-69
2021/07/31 08:00:38;;;;;;;2.30;1.37;;;24.60;63.90;;;;;;5012487;28;20401;-69
2021/07/31 08:03:06;;;;;;;2.58;1.40;;;24.60;63.90;;;;;;5013064;28;20411;-70
2021/07/31 08:05:31;;;;;;;1.70;1.20;;;24.60;63.80;;;;;;5007740;28;20395;-69
2021/07/31 08:07:57;;;;;;;2.30;1.23;;;24.60;63.80;;;;;;5008831;28;20383;-70
2021/07/31 08:10:23;;;;;;;1.85;1.10;;;24.60;63.90;;;;;;5007875;28;20401;-70
2021/07/31 08:12:48;;;;;;;1.90;1.30;;;24.60;63.80;;;;;;5006353;28;20419;-68
2021/07/31 08:15:14;;;;;;;2.20;1.30;;;24.60;63.70;;;;;;5007724;28;20523;-69
2021/07/31 08:17:39;;;;;;;2.13;1.27;;;24.60;63.70;;;;;;5009196;28;21199;-69
2021/07/31 08:20:06;;;;;;;2.13;1.40;;;24.60;63.60;;;;;;5010025;28;20446;-70
2021/07/31 08:22:33;;;;;;;1.83;1.25;;;24.60;63.60;;;;;;5013490;28;20467;-70
2021/07/31 08:25:00;;;;;;;2.13;1.30;;;24.60;63.60;;;;;;5011609;28;20966;-68
2021/07/31 08:27:27;;;;;;;1.75;1.20;;;24.60;64.10;;;;;;5009868;28;20461;-70
2021/07/31 08:29:53;;;;;;;1.63;1.20;;;24.60;63.50;;;;;;5019479;28;20387;-69
2021/07/31 08:32:18;;;;;;;2.75;1.33;;;24.60;63.50;;;;;;5013059;28;20389;-69
2021/07/31 08:34:44;;;;;;;2.05;1.20;;;24.60;63.50;;;;;;5006923;28;20391;-69
2021/07/31 08:37:10;;;;;;;1.80;1.20;;;24.60;63.50;;;;;;5014258;28;20405;-67
2021/07/31 08:39:39;;;;;;;2.13;1.30;;;24.60;63.50;;;;;;5005510;28;20400;-70
2021/07/31 08:42:05;;;;;;;1.95;1.20;;;24.60;63.50;;;;;;5039989;28;20400;-67
2021/07/31 08:44:34;;;;;;;1.80;1.35;;;24.60;63.50;;;;;;5008591;28;20783;-69
2021/07/31 08:47:03;;;;;;;1.63;1.20;;;24.60;63.40;;;;;;5016587;28;20395;-70
2021/07/31 08:49:30;;;;;;;2.20;1.60;;;24.60;63.40;;;;;;5010512;28;20408;-69
2021/07/31 08:51:58;;;;;;;2.50;1.30;;;24.60;63.40;;;;;;5012100;28;20463;-68
2021/07/31 08:54:24;;;;;;;1.80;1.27;;;24.60;63.50;;;;;;5011483;28;20388;-68
2021/07/31 08:56:49;;;;;;;1.65;1.27;;;24.60;63.50;;;;;;5002858;28;20412;-70
2021/07/31 08:59:16;;;;;;;1.77;1.35;;;24.60;63.40;;;;;;5009557;28;20476;-70
2021/07/31 09:01:43;;;;;;;2.00;1.40;;;24.60;63.40;;;;;;5010160;28;20891;-69
2021/07/31 09:04:13;;;;;;;1.67;1.30;;;24.60;63.40;;;;;;5017850;28;20490;-72
2021/07/31 09:06:39;;;;;;;1.73;1.38;;;24.60;63.40;;;;;;5010917;28;20414;-70
2021/07/31 09:09:05;;;;;;;1.90;1.40;;;24.60;63.40;;;;;;5013576;28;20731;-69
2021/07/31 09:11:32;;;;;;;2.10;1.67;;;24.60;63.40;;;;;;5016238;28;20392;-69
2021/07/31 09:14:16;;;;;;;2.00;1.60;;;24.60;63.30;;;;;;5015957;28;21355;-68
2021/07/31 09:16:44;;;;;;;2.70;1.70;;;24.60;63.30;;;;;;5011145;28;20403;-69
2021/07/31 09:19:13;;;;;;;2.13;1.40;;;24.60;63.80;;;;;;5012386;28;20405;-70
2021/07/31 09:21:43;;;;;;;1.77;1.40;;;24.60;63.80;;;;;;5011183;28;20435;-69
2021/07/31 09:24:23;;;;;;;1.85;1.60;;;24.60;63.20;;;;;;5012955;28;20692;-70
2021/07/31 09:26:52;;;;;;;1.90;1.30;;;24.60;63.20;;;;;;5010714;28;20389;-70
2021/07/31 09:29:30;;;;;;;2.30;1.75;;;24.60;63.20;;;;;;5013568;28;20404;-70
2021/07/31 09:32:07;;;;;;;2.22;1.60;;;24.60;63.20;;;;;;5010332;28;20389;-69
2021/07/31 09:34:38;;;;;;;2.13;1.42;;;24.60;63.20;;;;;;5012887;28;20396;-69
2021/07/31 09:37:18;;;;;;;1.65;1.40;;;24.60;63.20;;;;;;5012271;28;20446;-69
2021/07/31 09:40:02;;;;;;;1.80;1.40;;;24.60;63.10;;;;;;5010012;28;20429;-69
2021/07/31 09:42:28;;;;;;;1.88;1.42;;;24.60;63.10;;;;;;5010193;28;20393;-70
2021/07/31 09:44:55;;;;;;;3.40;1.40;;;24.60;63.10;;;;;;5014519;28;20978;-69
2021/07/31 09:47:21;;;;;;;2.50;1.80;;;24.60;63.20;;;;;;5011728;28;20409;-65
2021/07/31 09:49:47;;;;;;;2.33;1.87;;;24.60;62.90;;;;;;5006110;28;20399;-67
2021/07/31 09:52:20;;;;;;;3.97;1.90;;;24.70;63.60;;;;;;5015112;28;20398;-69
2021/07/31 09:54:46;;;;;;;3.90;1.80;;;24.70;63.40;;;;;;5012082;28;20404;-69
2021/07/31 09:57:12;;;;;;;3.80;1.95;;;24.80;63.50;;;;;;5014171;28;20895;-68
2021/07/31 09:59:47;;;;;;;4.15;1.90;;;24.80;63.40;;;;;;5011512;28;20403;-67
2021/07/31 10:02:21;;;;;;;3.38;2.20;;;24.80;63.40;;;;;;5011573;28;20868;-69
2021/07/31 10:04:47;;;;;;;3.17;1.90;;;24.80;63.30;;;;;;5008260;28;20428;-68
2021/07/31 10:07:14;;;;;;;2.97;2.13;;;24.80;63.00;;;;;;5009089;28;20476;-68
2021/07/31 10:09:42;;;;;;;4.32;2.40;;;24.80;63.00;;;;;;5016099;28;21576;-68
2021/07/31 10:12:15;;;;;;;5.18;2.20;;;24.80;63.10;;;;;;5017198;28;20819;-70
2021/07/31 10:14:42;;;;;;;3.42;2.10;;;24.80;63.10;;;;;;5011919;28;20397;-68
2021/07/31 10:17:09;;;;;;;4.15;2.10;;;24.80;63.10;;;;;;5011863;28;20424;-70
2021/07/31 10:19:39;;;;;;;5.70;2.17;;;24.80;63.00;;;;;;5012693;28;20416;-70
2021/07/31 10:22:05;;;;;;;4.43;2.15;;;24.90;63.70;;;;;;5013733;28;20391;-68
2021/07/31 10:24:53;;;;;;;6.90;2.30;;;24.90;63.70;;;;;;5006396;28;20427;-67
2021/07/31 10:27:23;;;;;;;6.35;2.25;;;24.90;63.60;;;;;;5018061;28;20400;-67
2021/07/31 10:29:53;;;;;;;3.50;2.10;;;24.90;63.70;;;;;;5016669;28;20495;-67
2021/07/31 10:32:22;;;;;;;5.35;2.33;;;25.00;63.80;;;;;;5016293;28;20388;-67
2021/07/31 10:34:58;;;;;;;5.90;2.53;;;25.00;63.50;;;;;;5014377;28;20385;-67
2021/07/31 10:37:31;;;;;;;5.37;2.20;;;25.00;63.50;;;;;;5010211;28;20387;-69
2021/07/31 10:40:16;;;;;;;5.55;2.50;;;25.00;63.40;;;;;;5013181;28;20391;-67
2021/07/31 10:42:51;;;;;;;7.40;2.47;;;24.90;63.70;;;;;;5031712;28;20498;-68
2021/07/31 10:45:17;;;;;;;4.43;2.40;;;24.90;63.20;;;;;;5007084;28;20495;-70
2021/07/31 10:47:47;;;;;;;4.97;2.30;;;24.80;63.40;;;;;;5028959;28;20495;-68
2021/07/31 10:50:25;;;;;;;4.15;2.50;;;24.80;63.10;;;;;;5045036;28;20399;-68
2021/07/31 10:53:10;;;;;;;3.95;2.40;;;24.80;63.10;;;;;;5026385;28;20395;-68
2021/07/31 10:55:36;;;;;;;3.17;2.23;;;24.80;63.00;;;;;;5014422;28;20854;-67
2021/07/31 10:58:01;;;;;;;3.40;2.40;;;24.80;63.30;;;;;;5015705;28;20397;-71
2021/07/31 11:00:33;;;;;;;4.63;2.27;;;24.80;63.10;;;;;;5031108;28;20986;-67
2021/07/31 11:02:59;;;;;;;4.40;2.50;;;24.80;63.00;;;;;;5008998;28;20421;-67
2021/07/31 11:05:25;;;;;;;6.38;2.83;;;24.70;62.80;;;;;;5017261;28;20395;-68
2021/07/31 11:07:57;;;;;;;5.15;2.58;;;24.70;63.00;;;;;;5014415;28;20387;-68
2021/07/31 11:10:42;;;;;;;4.28;2.58;;;24.70;62.80;;;;;;5022961;28;20432;-70
2021/07/31 11:13:28;;;;;;;5.47;2.90;;;24.70;62.90;;;;;;5012171;28;20404;-68
2021/07/31 11:16:03;;;;;;;3.65;2.83;;;24.70;63.00;;;;;;5020079;28;20435;-67
2021/07/31 11:18:39;;;;;;;5.18;2.95;;;24.80;62.80;;;;;;5012842;28;20416;-68
2021/07/31 11:21:42;;;;;;;3.80;2.88;;;24.70;62.90;;;;;;5028154;28;20909;-67
2021/07/31 11:24:10;;;;;;;6.00;3.50;;;24.70;62.70;;;;;;5013282;28;20422;-69
2021/07/31 11:26:50;;;;;;;4.68;2.92;;;24.70;62.80;;;;;;5015091;28;20395;-68
2021/07/31 11:29:20;;;;;;;5.63;3.40;;;24.80;62.80;;;;;;5011596;28;20436;-69
2021/07/31 11:32:01;;;;;;;6.65;3.55;;;24.70;63.00;;;;;;5013198;28;20382;-69
2021/07/31 11:34:34;;;;;;;8.00;4.05;;;24.80;63.20;;;;;;5007391;28;20420;-68
2021/07/31 11:37:00;;;;;;;6.95;3.70;;;24.80;63.00;;;;;;5013663;28;20397;-70
2021/07/31 11:39:25;;;;;;;6.88;3.60;;;24.80;62.80;;;;;;5013592;28;20395;-69
2021/07/31 11:41:51;;;;;;;6.67;3.70;;;24.80;62.90;;;;;;5016472;28;20414;-68
2021/07/31 11:44:32;;;;;;;6.88;3.45;;;24.80;63.00;;;;;;5016678;28;20452;-69
2021/07/31 11:46:59;;;;;;;7.63;3.80;;;24.80;63.00;;;;;;5012683;28;21271;-69
2021/07/31 11:49:29;;;;;;;4.85;3.17;;;24.80;63.00;;;;;;5012773;28;20773;-68
2021/07/31 11:52:03;;;;;;;5.57;3.10;;;24.80;63.00;;;;;;5005122;28;20421;-69
2021/07/31 11:54:30;;;;;;;6.00;3.30;;;24.80;62.90;;;;;;5015720;28;20876;-69
2021/07/31 11:56:57;;;;;;;6.00;3.30;;;24.80;63.00;;;;;;5010650;28;20931;-67
2021/07/31 11:59:29;;;;;;;4.43;3.17;;;24.80;63.00;;;;;;5016000;28;20418;-69
2021/07/31 12:01:55;;;;;;;4.97;3.22;;;24.70;63.50;;;;;;5013418;28;20428;-67
2021/07/31 12:04:43;;;;;;;5.03;3.00;;;24.70;63.00;;;;;;5013881;28;20458;-69
2021/07/31 12:07:21;;;;;;;4.35;2.80;;;24.70;63.00;;;;;;5009355;28;20887;-68
2021/07/31 12:10:10;;;;;;;4.63;2.85;;;24.70;63.00;;;;;;5011342;28;20484;-68
2021/07/31 12:12:41;;;;;;;5.28;3.10;;;24.80;63.00;;;;;;5013678;28;20431;-70
2021/07/31 12:15:20;;;;;;;5.32;2.85;;;24.80;63.90;;;;;;5010303;28;20381;-69
2021/07/31 12:17:54;;;;;;;5.13;2.97;;;24.80;63.90;;;;;;5009932;28;20431;-67
2021/07/31 12:20:38;;;;;;;6.32;3.20;;;24.80;63.80;;;;;;5024508;28;21025;-69
2021/07/31 12:23:07;;;;;;;5.90;3.30;;;24.90;63.60;;;;;;5030529;28;20422;-68
2021/07/31 12:25:33;;;;;;;5.00;3.70;;;24.90;63.80;;;;;;5010123;28;20420;-69
2021/07/31 12:28:09;;;;;;;6.15;3.83;;;24.90;64.80;;;;;;5044102;28;20505;-69
2021/07/31 12:30:35;;;;;;;5.55;3.17;;;25.00;65.10;;;;;;5012700;28;21479;-69
2021/07/31 12:33:06;;;;;;;5.38;3.20;;;25.00;64.70;;;;;;5005549;28;20404;-66
2021/07/31 12:35:46;;;;;;;6.75;3.40;;;25.00;65.30;;;;;;5026182;28;20404;-67
2021/07/31 12:38:23;;;;;;;4.90;3.30;;;25.00;64.80;;;;;;5002850;28;20400;-68
2021/07/31 12:40:54;;;;;;;6.50;3.45;;;25.00;63.70;;;;;;5006766;28;20379;-68
2021/07/31 12:43:21;;;;;;;4.18;3.78;;;25.00;64.20;;;;;;5012640;28;20428;-67
2021/07/31 12:45:50;;;;;;;5.25;3.50;;;25.00;64.00;;;;;;5012052;28;20403;-69
2021/07/31 12:48:16;;;;;;;6.28;3.25;;;25.00;64.00;;;;;;5013229;28;20434;-68
2021/07/31 12:50:42;;;;;;;6.18;3.28;;;25.00;64.00;;;;;;5010529;28;20447;-69